Archival Weather

Norman Y Mineta San Jose Intl

San Jose, California (KSJC)

Report from: Thursday, February 22, 2024 12:53 AM PST
Current time: Friday, June 14, 2024 4:34 AM PDT

Current weather – Weather history – Daily summaries
Weather forecast

Temperature9.4°C (48.9°F)
Wind chill8.9°C (48.1°F)
Dew point6.7°C (44.1°F)
Winds 3 kts (1.5 m/s, 3.5 mph) South-Southeast (150°)
Visibility10 mi. (16.1 km)
Clouds Sky clear
Altimeter30.25 in.Hg (1024 mB)
Relative humidity83 %
Density altitude-899 ft. (-274 m)
Sea-level pressure102.4 kPa (1024 mB, 30.24 in.Hg)
Remarks Fully automated report
Automated weather observing station with precipitation discriminator
Pressure falling more slowly
Flight conditions Visual Meteorological Conditions
Raw dataKSJC 220853Z AUTO 15003KT 10SM CLR 09/07 A3025 RMK AO2 SLP242 T00940067 56005
An error has occurred. This application may no longer respond until reloaded. Reload 🗙